createdAt,value
2018-09-01T00:01:53.624Z,17.70
2018-09-01T00:04:21.620Z,17.70
2018-09-01T00:06:49.566Z,17.60
2018-09-01T00:09:17.923Z,17.60
2018-09-01T00:11:45.863Z,17.70
2018-09-01T00:14:13.791Z,17.70
2018-09-01T00:16:41.758Z,17.70
2018-09-01T00:19:09.723Z,17.70
2018-09-01T00:21:37.652Z,17.70
2018-09-01T00:24:09.758Z,17.70
2018-09-01T00:26:38.916Z,17.70
2018-09-01T00:29:06.878Z,17.70
2018-09-01T00:31:35.004Z,17.60
2018-09-01T00:34:03.318Z,17.60
2018-09-01T00:36:31.407Z,17.70
2018-09-01T00:39:02.002Z,17.70
2018-09-01T00:41:30.160Z,17.70
2018-09-01T00:43:58.376Z,17.60
2018-09-01T00:46:26.402Z,17.70
2018-09-01T00:48:54.488Z,17.70
2018-09-01T00:51:22.572Z,17.70
2018-09-01T00:53:50.566Z,17.70
2018-09-01T00:56:18.497Z,17.70
2018-09-01T00:58:46.435Z,17.70
2018-09-01T01:01:14.389Z,17.60
2018-09-01T01:03:42.339Z,17.60
2018-09-01T01:06:10.339Z,17.50
2018-09-01T01:08:38.425Z,17.50
2018-09-01T01:11:06.502Z,17.50
2018-09-01T01:13:34.765Z,17.50
2018-09-01T01:16:02.708Z,17.50
2018-09-01T01:18:30.631Z,17.40
2018-09-01T01:20:58.876Z,17.40
2018-09-01T01:23:26.871Z,17.40
2018-09-01T01:25:54.836Z,17.50
2018-09-01T01:28:22.781Z,17.50
2018-09-01T01:30:50.848Z,17.40
2018-09-01T01:33:18.833Z,17.40
2018-09-01T01:35:46.820Z,17.40
2018-09-01T01:38:14.768Z,17.40
2018-09-01T01:40:42.716Z,17.40
2018-09-01T01:43:10.688Z,17.40
2018-09-01T01:45:45.385Z,17.40
2018-09-01T01:48:13.325Z,17.40
2018-09-01T01:50:41.452Z,17.30
2018-09-01T01:53:09.440Z,17.30
2018-09-01T01:55:37.377Z,17.30
2018-09-01T01:58:05.472Z,17.30
2018-09-01T02:00:33.427Z,17.30
2018-09-01T02:03:01.379Z,17.30
2018-09-01T02:05:32.268Z,17.20
2018-09-01T02:08:00.253Z,17.20
2018-09-01T02:10:28.190Z,17.10
2018-09-01T02:12:56.140Z,17.10
2018-09-01T02:15:24.103Z,17.10
2018-09-01T02:17:52.156Z,17.10
2018-09-01T02:20:20.102Z,17.10
2018-09-01T02:22:48.064Z,17.10
2018-09-01T02:25:16.016Z,17.10
2018-09-01T02:27:43.959Z,17.00
2018-09-01T02:30:11.980Z,17.00
2018-09-01T02:32:39.935Z,16.90
2018-09-01T02:35:07.953Z,16.90
2018-09-01T02:37:36.133Z,16.80
2018-09-01T02:40:04.071Z,16.80
2018-09-01T02:42:32.033Z,16.80
2018-09-01T02:45:00.001Z,16.80
2018-09-01T02:47:27.952Z,16.70
2018-09-01T02:49:56.228Z,16.70
2018-09-01T02:52:24.175Z,16.70
2018-09-01T02:54:52.128Z,16.70
2018-09-01T02:57:20.090Z,16.70
2018-09-01T02:59:48.069Z,16.60
2018-09-01T03:02:21.434Z,16.50
2018-09-01T03:04:49.511Z,16.50
2018-09-01T03:07:17.562Z,16.60
2018-09-01T03:09:46.023Z,16.60
2018-09-01T03:12:13.986Z,16.60
2018-09-01T03:14:41.936Z,16.60
2018-09-01T03:17:09.998Z,16.60
2018-09-01T03:19:37.932Z,16.60
2018-09-01T03:22:05.873Z,16.50
2018-09-01T03:24:33.863Z,16.50
2018-09-01T03:27:01.811Z,16.50
2018-09-01T03:29:29.779Z,16.50
2018-09-01T03:31:57.776Z,16.50
2018-09-01T03:34:25.745Z,16.50
2018-09-01T03:36:53.739Z,16.40
2018-09-01T03:39:21.736Z,16.40
2018-09-01T03:41:50.153Z,16.40
2018-09-01T03:44:18.163Z,16.40
2018-09-01T03:46:46.128Z,16.30
2018-09-01T03:49:14.105Z,16.30
2018-09-01T03:51:42.055Z,16.30
2018-09-01T03:54:10.015Z,16.30
2018-09-01T03:56:37.967Z,16.30
2018-09-01T03:59:05.955Z,16.30
2018-09-01T04:01:34.223Z,16.20
2018-09-01T04:04:02.228Z,16.20
2018-09-01T04:06:30.192Z,16.20
2018-09-01T04:08:58.518Z,16.10
2018-09-01T04:11:26.468Z,16.10
2018-09-01T04:13:54.504Z,16.00
2018-09-01T04:16:22.472Z,16.10
2018-09-01T04:18:50.448Z,16.10
2018-09-01T04:21:18.392Z,16.10
2018-09-01T04:23:46.334Z,16.10
2018-09-01T04:26:14.368Z,16.00
2018-09-01T04:28:42.604Z,16.00
2018-09-01T04:31:10.541Z,16.00
2018-09-01T04:33:38.566Z,16.00
2018-09-01T04:36:06.916Z,16.00
2018-09-01T04:38:34.928Z,16.00
2018-09-01T04:41:02.881Z,15.90
2018-09-01T04:43:30.839Z,15.90
2018-09-01T04:45:58.850Z,15.80
2018-09-01T04:48:27.262Z,15.80
2018-09-01T04:50:55.275Z,15.80
2018-09-01T04:53:23.208Z,15.80
2018-09-01T04:55:51.256Z,15.90
2018-09-01T04:58:19.211Z,15.90
2018-09-01T05:00:47.227Z,15.90
2018-09-01T05:03:15.132Z,15.90
2018-09-01T05:05:43.105Z,15.70
2018-09-01T05:08:11.083Z,15.70
2018-09-01T05:10:39.030Z,15.50
2018-09-01T05:13:06.996Z,15.50
2018-09-01T05:15:34.977Z,15.50
2018-09-01T05:18:02.902Z,15.60
2018-09-01T05:20:30.926Z,15.70
2018-09-01T05:22:58.892Z,15.70
2018-09-01T05:25:26.856Z,15.90
2018-09-01T05:27:54.840Z,15.80
2018-09-01T05:30:22.792Z,15.80
2018-09-01T05:32:50.737Z,15.90
2018-09-01T05:35:18.708Z,16.00
2018-09-01T05:37:46.693Z,16.00
2018-09-01T05:40:14.692Z,15.90
2018-09-01T05:42:42.665Z,16.00
2018-09-01T05:45:10.610Z,16.00
2018-09-01T05:47:38.579Z,16.00
2018-09-01T05:50:07.028Z,16.00
2018-09-01T05:52:34.963Z,16.00
2018-09-01T05:55:02.899Z,16.10
2018-09-01T05:57:30.847Z,16.10
2018-09-01T05:59:58.815Z,16.00
2018-09-01T06:02:26.781Z,16.10
2018-09-01T06:04:54.773Z,16.10
2018-09-01T06:07:22.703Z,16.10
2018-09-01T06:09:50.678Z,16.10
2018-09-01T06:12:18.653Z,16.10
2018-09-01T06:14:46.625Z,16.20
2018-09-01T06:17:14.630Z,16.20
2018-09-01T06:19:42.866Z,16.30
2018-09-01T06:22:10.866Z,16.30
2018-09-01T06:24:38.954Z,16.40
2018-09-01T06:27:11.166Z,16.40
2018-09-01T06:29:39.225Z,16.40
2018-09-01T06:32:07.847Z,16.50
2018-09-01T06:34:35.804Z,16.60
2018-09-01T06:37:03.843Z,16.60
2018-09-01T06:39:31.825Z,16.60
2018-09-01T06:41:59.869Z,16.60
2018-09-01T06:44:27.826Z,16.60
2018-09-01T06:46:55.772Z,16.60
2018-09-01T06:49:23.737Z,16.70
2018-09-01T06:51:51.699Z,16.70
2018-09-01T06:54:19.652Z,16.70
2018-09-01T06:56:47.671Z,16.70
2018-09-01T06:59:15.610Z,16.80
2018-09-01T07:01:43.625Z,16.80
2018-09-01T07:05:36.152Z,16.90
2018-09-01T07:08:04.130Z,16.90
2018-09-01T07:10:32.245Z,16.90
2018-09-01T07:13:00.663Z,16.90
2018-09-01T07:15:28.627Z,16.90
2018-09-01T07:17:56.561Z,17.00
2018-09-01T07:20:24.512Z,17.10
2018-09-01T07:22:52.448Z,17.20
2018-09-01T07:25:20.442Z,17.20
2018-09-01T07:27:48.395Z,17.30
2018-09-01T07:30:16.413Z,17.30
2018-09-01T07:32:44.345Z,17.30
2018-09-01T07:35:12.449Z,17.40
2018-09-01T07:37:40.763Z,17.40
2018-09-01T07:40:08.718Z,17.40
2018-09-01T07:42:36.743Z,17.40
2018-09-01T07:45:04.980Z,17.40
2018-09-01T07:47:32.940Z,17.40
2018-09-01T07:50:00.947Z,17.50
2018-09-01T07:52:29.068Z,17.50
2018-09-01T07:54:57.291Z,17.50
2018-09-01T07:57:25.430Z,17.60
2018-09-01T07:59:53.610Z,17.60
2018-09-01T08:02:21.787Z,17.70
2018-09-01T08:04:49.919Z,17.70
2018-09-01T08:07:18.531Z,17.70
2018-09-01T08:09:46.575Z,17.70
2018-09-01T08:12:14.688Z,17.80
2018-09-01T08:14:42.993Z,17.80
2018-09-01T08:17:11.043Z,17.80
2018-09-01T08:19:39.660Z,17.90
2018-09-01T08:22:07.772Z,17.90
2018-09-01T08:24:35.946Z,18.00
2018-09-01T08:27:04.204Z,18.00
2018-09-01T08:29:32.353Z,18.00
2018-09-01T08:32:00.488Z,18.00
2018-09-01T08:34:28.752Z,18.00
2018-09-01T08:36:56.870Z,18.00
2018-09-01T08:39:24.993Z,18.10
2018-09-01T08:41:53.309Z,18.10
2018-09-01T08:44:21.501Z,18.20
2018-09-01T08:46:49.739Z,18.20
2018-09-01T08:49:17.956Z,18.20
2018-09-01T08:51:46.134Z,18.30
2018-09-01T08:54:14.751Z,18.30
2018-09-01T08:56:43.063Z,18.30
2018-09-01T08:59:11.089Z,18.30
2018-09-01T09:01:39.292Z,18.30
2018-09-01T09:04:07.547Z,18.30
2018-09-01T09:06:35.818Z,18.30
2018-09-01T09:09:05.813Z,18.40
2018-09-01T09:11:34.042Z,18.40
2018-09-01T09:14:01.952Z,18.50
2018-09-01T09:16:30.309Z,18.60
2018-09-01T09:18:58.459Z,18.60
2018-09-01T09:21:26.496Z,18.60
2018-09-01T09:23:54.764Z,18.60
2018-09-01T09:26:22.694Z,18.60
2018-09-01T09:28:50.672Z,18.70
2018-09-01T09:31:18.659Z,18.70
2018-09-01T09:33:46.628Z,18.70
2018-09-01T09:36:14.592Z,18.80
2018-09-01T09:38:42.547Z,18.80
2018-09-01T09:41:10.920Z,19.00
2018-09-01T09:43:38.933Z,19.10
2018-09-01T09:46:06.888Z,19.20
2018-09-01T09:48:34.884Z,19.30
2018-09-01T09:51:02.961Z,19.40
2018-09-01T09:53:31.081Z,19.50
2018-09-01T09:55:59.022Z,19.50
2018-09-01T09:58:27.092Z,19.40
2018-09-01T10:00:58.731Z,19.40
2018-09-01T10:03:27.016Z,19.30
2018-09-01T10:05:55.445Z,19.30
2018-09-01T10:08:23.415Z,19.40
2018-09-01T10:10:51.415Z,19.30
2018-09-01T10:13:19.758Z,19.40
2018-09-01T10:15:47.741Z,19.40
2018-09-01T10:18:15.795Z,19.40
2018-09-01T10:20:43.854Z,19.50
2018-09-01T10:23:11.900Z,19.60
2018-09-01T10:25:39.888Z,19.70
2018-09-01T10:28:08.063Z,19.70
2018-09-01T10:30:36.113Z,19.80
2018-09-01T10:33:04.106Z,19.80
2018-09-01T10:35:32.142Z,19.80
2018-09-01T10:38:00.104Z,19.80
2018-09-01T10:40:28.052Z,19.70
2018-09-01T10:42:56.030Z,19.70
2018-09-01T10:45:24.268Z,19.80
2018-09-01T10:47:52.205Z,19.80
2018-09-01T10:50:20.165Z,19.90
2018-09-01T10:52:48.141Z,20.00
2018-09-01T10:55:16.120Z,20.10
2018-09-01T10:57:44.386Z,20.20
2018-09-01T11:00:12.510Z,20.30
2018-09-01T11:02:40.454Z,20.20
2018-09-01T11:05:08.525Z,20.30
2018-09-01T11:07:36.568Z,20.30
2018-09-01T11:10:04.527Z,20.30
2018-09-01T11:12:32.514Z,20.20
2018-09-01T11:15:00.574Z,20.20
2018-09-01T11:17:28.586Z,20.20
2018-09-01T11:19:56.537Z,20.30
2018-09-01T11:22:24.906Z,20.40
2018-09-01T11:24:52.986Z,20.60
2018-09-01T11:27:21.073Z,20.70
2018-09-01T11:29:49.111Z,20.70
2018-09-01T11:32:17.213Z,20.80
2018-09-01T11:34:45.409Z,20.80
2018-09-01T11:37:13.544Z,20.90
2018-09-01T11:39:41.637Z,21.00
2018-09-01T11:42:09.866Z,21.10
2018-09-01T11:44:37.910Z,21.10
2018-09-01T11:47:05.926Z,21.10
2018-09-01T11:49:33.974Z,21.10
2018-09-01T11:52:01.988Z,21.10
2018-09-01T11:54:29.964Z,21.10
2018-09-01T11:57:04.675Z,21.10
2018-09-01T11:59:32.873Z,21.20
2018-09-01T12:02:00.912Z,21.20
2018-09-01T12:04:28.891Z,21.20
2018-09-01T12:06:56.933Z,21.20
2018-09-01T12:09:24.978Z,21.20
2018-09-01T12:11:53.598Z,21.30
2018-09-01T12:14:21.567Z,21.40
2018-09-01T12:16:49.545Z,21.40
2018-09-01T12:19:17.535Z,21.40
2018-09-01T12:21:45.575Z,21.40
2018-09-01T12:24:13.564Z,21.40
2018-09-01T12:26:41.524Z,21.40
2018-09-01T12:29:09.766Z,21.40
2018-09-01T12:31:37.735Z,21.40
2018-09-01T12:34:06.035Z,21.40
2018-09-01T12:36:34.309Z,21.50
2018-09-01T12:39:02.258Z,21.50
2018-09-01T12:41:30.203Z,21.50
2018-09-01T12:43:58.163Z,21.60
2018-09-01T12:46:26.239Z,21.50
2018-09-01T12:48:54.183Z,21.50
2018-09-01T12:51:23.192Z,21.50
2018-09-01T12:53:51.142Z,21.50
2018-09-01T12:56:19.209Z,21.50
2018-09-01T12:58:47.227Z,21.60
2018-09-01T13:01:15.894Z,21.60
2018-09-01T13:03:43.939Z,21.50
2018-09-01T13:06:12.154Z,21.50
2018-09-01T13:08:40.511Z,21.50
2018-09-01T13:11:09.175Z,21.60
2018-09-01T13:13:37.156Z,21.70
2018-09-01T13:16:05.200Z,21.70
2018-09-01T13:18:33.297Z,21.70
2018-09-01T13:21:01.246Z,21.60
2018-09-01T13:23:29.270Z,21.70
2018-09-01T13:25:57.551Z,21.70
2018-09-01T13:28:25.527Z,21.80
2018-09-01T13:30:53.476Z,21.80
2018-09-01T13:33:21.496Z,21.70
2018-09-01T13:35:49.475Z,21.70
2018-09-01T13:38:17.447Z,21.70
2018-09-01T13:40:45.437Z,21.80
2018-09-01T13:43:13.548Z,21.80
2018-09-01T13:45:41.587Z,21.80
2018-09-01T13:48:09.543Z,21.90
2018-09-01T13:50:37.582Z,22.00
2018-09-01T13:53:06.040Z,22.00
2018-09-01T13:55:34.019Z,22.00
2018-09-01T13:58:01.984Z,22.10
2018-09-01T14:00:29.925Z,22.10
2018-09-01T14:02:57.910Z,22.10
2018-09-01T14:05:25.864Z,22.20
2018-09-01T14:07:53.973Z,22.20
2018-09-01T14:10:22.009Z,22.20
2018-09-01T14:12:50.050Z,22.30
2018-09-01T14:15:18.047Z,22.30
2018-09-01T14:17:46.017Z,22.40
2018-09-01T14:20:14.467Z,22.40
2018-09-01T14:22:42.482Z,22.50
2018-09-01T14:25:10.512Z,22.50
2018-09-01T14:27:38.540Z,22.50
2018-09-01T14:30:07.089Z,22.50
2018-09-01T14:32:35.141Z,22.50
2018-09-01T14:35:03.204Z,22.50
2018-09-01T14:37:31.252Z,22.50
2018-09-01T14:39:59.275Z,22.50
2018-09-01T14:42:27.285Z,22.50
2018-09-01T14:44:55.740Z,22.50
2018-09-01T14:47:23.762Z,22.50
2018-09-01T14:49:51.679Z,22.50
2018-09-01T14:52:19.728Z,22.50
2018-09-01T14:54:47.732Z,22.60
2018-09-01T14:57:15.664Z,22.60
2018-09-01T14:59:43.637Z,22.60
2018-09-01T15:02:11.604Z,22.60
2018-09-01T15:04:39.551Z,22.60
2018-09-01T15:07:07.543Z,22.60
2018-09-01T15:09:35.552Z,22.50
2018-09-01T15:12:03.643Z,22.50
2018-09-01T15:14:31.664Z,22.50
2018-09-01T15:16:59.626Z,22.50
2018-09-01T15:19:27.620Z,22.50
2018-09-01T15:21:55.684Z,22.60
2018-09-01T15:24:23.698Z,22.60
2018-09-01T15:26:51.783Z,22.60
2018-09-01T15:29:19.776Z,22.60
2018-09-01T15:31:47.760Z,22.60
2018-09-01T15:34:15.704Z,22.60
2018-09-01T15:36:43.688Z,22.60
2018-09-01T15:39:11.632Z,22.60
2018-09-01T15:41:39.612Z,22.60
2018-09-01T15:44:07.617Z,22.60
2018-09-01T15:46:35.847Z,22.60
2018-09-01T15:49:03.813Z,22.60
2018-09-01T15:51:32.191Z,22.60
2018-09-01T15:54:00.238Z,22.60
2018-09-01T15:56:28.388Z,22.60
2018-09-01T15:58:56.248Z,22.60
2018-09-01T16:01:24.200Z,22.60
2018-09-01T16:03:52.130Z,22.60
2018-09-01T16:06:20.233Z,22.50
2018-09-01T16:08:48.200Z,22.50
2018-09-01T16:11:16.148Z,22.50
2018-09-01T16:13:44.165Z,22.50
2018-09-01T16:16:12.496Z,22.50
2018-09-01T16:18:40.440Z,22.50
2018-09-01T16:21:08.401Z,22.50
2018-09-01T16:23:36.360Z,22.50
2018-09-01T16:26:04.306Z,22.50
2018-09-01T16:28:32.261Z,22.50
2018-09-01T16:31:00.441Z,22.50
2018-09-01T16:33:28.445Z,22.50
2018-09-01T16:35:56.515Z,22.50
2018-09-01T16:38:24.611Z,22.50
2018-09-01T16:40:52.579Z,22.50
2018-09-01T16:43:20.580Z,22.50
2018-09-01T16:45:49.584Z,22.50
2018-09-01T16:48:17.596Z,22.40
2018-09-01T16:50:45.678Z,22.40
2018-09-01T16:53:13.768Z,22.40
2018-09-01T16:55:41.768Z,22.40
2018-09-01T16:58:09.738Z,22.40
2018-09-01T17:00:37.834Z,22.40
2018-09-01T17:03:05.862Z,22.40
2018-09-01T17:05:33.904Z,22.40
2018-09-01T17:08:01.836Z,22.40
2018-09-01T17:10:29.840Z,22.40
2018-09-01T17:12:57.775Z,22.30
2018-09-01T17:15:25.735Z,22.30
2018-09-01T17:17:53.998Z,22.30
2018-09-01T17:20:22.350Z,22.30
2018-09-01T17:22:50.388Z,22.30
2018-09-01T17:25:18.365Z,22.20
2018-09-01T17:27:46.538Z,22.20
2018-09-01T17:30:15.022Z,22.20
2018-09-01T17:32:43.136Z,22.20
2018-09-01T17:35:11.149Z,22.20
2018-09-01T17:37:39.496Z,22.10
2018-09-01T17:40:07.452Z,22.10
2018-09-01T17:42:35.479Z,22.10
2018-09-01T17:45:03.610Z,22.10
2018-09-01T17:47:31.573Z,22.00
2018-09-01T17:49:59.579Z,22.00
2018-09-01T17:52:27.674Z,22.00
2018-09-01T17:54:55.992Z,21.90
2018-09-01T17:57:23.990Z,21.90
2018-09-01T17:59:52.030Z,21.90
2018-09-01T18:02:20.068Z,21.80
2018-09-01T18:04:48.285Z,21.60
2018-09-01T18:07:16.256Z,21.50
2018-09-01T18:09:44.928Z,21.50
2018-09-01T18:12:12.884Z,21.50
2018-09-01T18:14:41.016Z,21.50
2018-09-01T18:17:09.241Z,21.50
2018-09-01T18:19:37.407Z,21.50
2018-09-01T18:22:05.497Z,21.40
2018-09-01T18:24:33.506Z,21.40
2018-09-01T18:27:01.448Z,21.20
2018-09-01T18:29:29.539Z,21.20
2018-09-01T18:31:57.717Z,21.10
2018-09-01T18:34:25.784Z,21.10
2018-09-01T18:36:53.782Z,21.10
2018-09-01T18:39:25.256Z,21.20
2018-09-01T18:41:53.295Z,21.20
2018-09-01T18:44:21.728Z,21.30
2018-09-01T18:46:49.796Z,21.20
2018-09-01T18:49:17.850Z,21.20
2018-09-01T18:51:45.917Z,21.20
2018-09-01T18:54:14.009Z,21.20
2018-09-01T18:56:41.951Z,21.10
2018-09-01T18:59:09.941Z,21.10
2018-09-01T19:01:38.210Z,21.20
2018-09-01T19:04:06.281Z,21.20
2018-09-01T19:06:34.231Z,21.20
2018-09-01T19:09:02.212Z,21.20
2018-09-01T19:11:30.158Z,21.20
2018-09-01T19:13:58.147Z,21.20
2018-09-01T19:16:26.381Z,21.20
2018-09-01T19:18:54.322Z,21.20
2018-09-01T19:21:22.336Z,21.20
2018-09-01T19:23:50.307Z,21.20
2018-09-01T19:26:18.284Z,21.20
2018-09-01T19:28:46.246Z,21.20
2018-09-01T19:31:14.191Z,21.20
2018-09-01T19:33:42.158Z,21.20
2018-09-01T19:36:10.181Z,21.10
2018-09-01T19:38:38.148Z,21.10
2018-09-01T19:41:06.114Z,21.10
2018-09-01T19:43:34.081Z,21.20
2018-09-01T19:46:02.441Z,21.20
2018-09-01T19:48:30.356Z,21.10
2018-09-01T19:50:58.292Z,21.10
2018-09-01T19:53:26.258Z,21.10
2018-09-01T19:55:54.301Z,21.10
2018-09-01T19:58:22.458Z,21.10
2018-09-01T20:00:50.855Z,21.10
2018-09-01T20:03:18.785Z,21.10
2018-09-01T20:05:46.713Z,21.10
2018-09-01T20:08:14.955Z,21.10
2018-09-01T20:10:42.889Z,21.10
2018-09-01T20:13:11.682Z,21.10
2018-09-01T20:15:39.659Z,21.10
2018-09-01T20:18:07.628Z,21.00
2018-09-01T20:20:35.611Z,21.00
2018-09-01T20:23:07.236Z,21.00
2018-09-01T20:25:35.577Z,20.90
2018-09-01T20:28:03.524Z,20.90
2018-09-01T20:30:31.473Z,20.90
2018-09-01T20:32:59.468Z,20.80
2018-09-01T20:35:32.867Z,20.80
2018-09-01T20:38:00.900Z,20.80
2018-09-01T20:40:28.830Z,20.80
2018-09-01T20:42:56.768Z,20.80
2018-09-01T20:45:24.729Z,20.80
2018-09-01T20:47:52.971Z,20.80
2018-09-01T20:50:20.905Z,20.80
2018-09-01T20:52:48.848Z,20.80
2018-09-01T20:55:17.248Z,20.70
2018-09-01T20:57:45.234Z,20.70
2018-09-01T21:00:13.202Z,20.80
2018-09-01T21:02:41.218Z,20.80
2018-09-01T21:05:09.143Z,20.70
2018-09-01T21:07:37.158Z,20.60
2018-09-01T21:10:05.126Z,20.60
2018-09-01T21:12:33.050Z,20.60
2018-09-01T21:15:01.036Z,20.60
2018-09-01T21:17:28.985Z,20.60
2018-09-01T21:19:56.958Z,20.60
2018-09-01T21:22:24.950Z,20.70
2018-09-01T21:24:52.905Z,20.70
2018-09-01T21:27:20.854Z,20.70
2018-09-01T21:29:48.892Z,20.60
2018-09-01T21:32:16.953Z,20.60
2018-09-01T21:34:44.929Z,20.70
2018-09-01T21:37:13.007Z,20.60
2018-09-01T21:39:40.998Z,20.60
2018-09-01T21:42:09.054Z,20.60
2018-09-01T21:44:37.016Z,20.60
2018-09-01T21:47:05.672Z,20.60
2018-09-01T21:49:34.524Z,20.50
2018-09-01T21:52:02.599Z,20.50
2018-09-01T21:54:30.675Z,20.50
2018-09-01T21:56:58.718Z,20.40
2018-09-01T21:59:26.676Z,20.40
2018-09-01T22:02:00.294Z,20.40
2018-09-01T22:04:32.532Z,20.40
2018-09-01T22:07:00.495Z,20.40
2018-09-01T22:09:28.453Z,20.30
2018-09-01T22:11:56.440Z,20.40
2018-09-01T22:14:24.393Z,20.30
2018-09-01T22:16:52.506Z,20.30
2018-09-01T22:19:20.807Z,20.30
2018-09-01T22:21:48.777Z,20.20
2018-09-01T22:24:16.730Z,20.20
2018-09-01T22:26:44.749Z,20.20
2018-09-01T22:29:12.729Z,20.20
2018-09-01T22:31:40.708Z,20.20
2018-09-01T22:34:08.703Z,20.20
2018-09-01T22:36:36.667Z,20.10
2018-09-01T22:39:05.592Z,20.20
2018-09-01T22:41:33.611Z,20.10
2018-09-01T22:44:01.547Z,20.10
2018-09-01T22:46:29.519Z,20.10
2018-09-01T22:48:57.467Z,20.10
2018-09-01T22:51:25.448Z,20.10
2018-09-01T22:53:53.490Z,20.10
2018-09-01T22:56:21.508Z,20.10
2018-09-01T22:58:49.472Z,20.10
2018-09-01T23:01:17.739Z,20.20
2018-09-01T23:03:45.687Z,20.20
2018-09-01T23:06:13.700Z,20.20
2018-09-01T23:08:41.735Z,20.20
2018-09-01T23:11:09.721Z,20.20
2018-09-01T23:13:37.753Z,20.10
2018-09-01T23:16:05.792Z,20.00
2018-09-01T23:18:33.735Z,20.00
2018-09-01T23:21:01.786Z,20.00
2018-09-01T23:23:29.742Z,19.90
2018-09-01T23:25:57.675Z,19.90
2018-09-01T23:28:25.655Z,19.90
2018-09-01T23:30:53.621Z,19.80
2018-09-01T23:33:21.583Z,19.80
2018-09-01T23:35:49.528Z,19.80
2018-09-01T23:38:17.476Z,19.80
2018-09-01T23:40:45.415Z,19.80
2018-09-01T23:43:13.463Z,19.70
2018-09-01T23:45:41.399Z,19.70
2018-09-01T23:48:09.376Z,19.60
2018-09-01T23:50:37.314Z,19.60
2018-09-01T23:53:05.444Z,19.50
2018-09-01T23:55:33.384Z,19.50
2018-09-01T23:58:01.368Z,19.50
